Weather History for KAJG - April, 2014

Change the Weather History Date:

Wednesday, April 9, 2014

  Actual Average (KLWV) Record (KLWV)
Temperature  
Mean Temperature 52 °F 54 °F  
Max Temperature 62 °F 64 °F 86 °F (2001)
Min Temperature 41 °F 43 °F 24 °F (1997)
Degree Days  
Heating Degree Days 14 12  
Month to date heating degree days 120  
Since 1 July heating degree days 4417  
Cooling Degree Days 0 1  
Month to date cooling degree days 3  
Year to date cooling degree days 5  
Growing Degree Days 2 (Base 50)    
Moisture  
Dew Point 38 °F    
Average Humidity 62    
Maximum Humidity 93    
Minimum Humidity 34    
Precipitation  
Precipitation 0.00 in 0.10 in 1.40 in (1991)
Month to date precipitation 1.00  
Year to date precipitation 8.82  
Sea Level Pressure  
Sea Level Pressure 30.03 in    
Wind  
Wind Speed 4 mph (WSW)    
Max Wind Speed 15 mph    
Max Gust Speed 18 mph    
Visibility 10 miles    
Events      
T = Trace of Precipitation, MM = Missing Value Source: NWS Daily Summary

Daily Weather History Graph

Daily Weather History Graph

Search for Another Location

Airport or City:

Trip Planner

Search our weather history database for the weather conditions in past years. The results will help you decide how hot, cold, wet, or windy it might be!

Date:

Astronomy

Apr. 09, 2014 Rise Set
Actual Time 6:23 AM CDT 7:21 PM CDT
Civil Twilight 5:56 AM CDT 7:49 PM CDT
Nautical Twilight 5:24 AM CDT 8:21 PM CDT
Astronomical Twilight 4:50 AM CDT 8:54 PM CDT
Moon 2:13 PM CDT (4/9) 3:08 AM CDT (4/9)
Length of Visible Light 13h 52m
Length of Day
12h 58m
Waxing Gibbous, 72% of the Moon is Illuminated
Apr 9
Waxing Gibbous
Apr 15
Full
Apr 22
Last Quarter
Apr 29
New
May 6
First Quarter

Hourly Weather History & Observations

Time (CDT) Temp. Windchill Dew Point Humidity Pressure Visibility Wind Dir Wind Speed Gust Speed Precip Events Conditions
12:15 AM 44.6 °F - 42.8 °F 93% 29.94 in 10.0 mi Calm Calm - N/A   Clear
12:35 AM 44.6 °F - 41.0 °F 87% 29.95 in 10.0 mi Calm Calm - N/A   Clear
12:55 AM 42.8 °F - 41.0 °F 93% 29.95 in 10.0 mi Calm Calm - N/A   Clear
1:15 AM 42.8 °F - 41.0 °F 93% 29.95 in 10.0 mi Calm Calm - N/A   Clear
1:35 AM 42.8 °F - 41.0 °F 93% 29.95 in 10.0 mi Calm Calm - N/A   Clear
1:55 AM 44.6 °F - 41.0 °F 87% 29.95 in 10.0 mi Calm Calm - N/A   Clear
2:15 AM 42.8 °F - 41.0 °F 93% 29.95 in 10.0 mi Calm Calm - N/A   Clear
2:35 AM 42.8 °F - 41.0 °F 93% 29.96 in 10.0 mi Calm Calm - N/A   Clear
2:55 AM 42.8 °F - 41.0 °F 93% 29.96 in 10.0 mi Calm Calm - N/A   Clear
3:15 AM 44.6 °F 40.2 °F 41.0 °F 87% 29.96 in 10.0 mi NW 8.1 mph - N/A   Clear
3:35 AM 46.4 °F - 37.4 °F 71% 29.96 in 10.0 mi Calm Calm - N/A   Clear
3:55 AM 44.6 °F 40.2 °F 37.4 °F 76% 29.97 in 10.0 mi WNW 8.1 mph - N/A   Clear
4:15 AM 44.6 °F 40.2 °F 37.4 °F 76% 29.98 in 10.0 mi WNW 8.1 mph - N/A   Clear
4:35 AM 44.6 °F 40.7 °F 37.4 °F 76% 29.98 in 10.0 mi WNW 6.9 mph - N/A   Clear
4:55 AM 44.6 °F 40.2 °F 37.4 °F 76% 29.99 in 10.0 mi NW 8.1 mph - N/A   Clear
5:15 AM 44.6 °F 40.2 °F 35.6 °F 71% 29.99 in 10.0 mi NW 8.1 mph - N/A   Clear
5:35 AM 44.6 °F 40.7 °F 35.6 °F 71% 30.00 in 10.0 mi NW 6.9 mph - N/A   Clear
5:55 AM 42.8 °F - 35.6 °F 76% 30.01 in 10.0 mi Calm Calm - N/A   Clear
6:15 AM 42.8 °F - 35.6 °F 76% 30.02 in 10.0 mi Calm Calm - N/A   Clear
6:35 AM 42.8 °F - 35.6 °F 76% 30.03 in 10.0 mi Calm Calm - N/A   Clear
6:55 AM 41.0 °F - 35.6 °F 81% 30.04 in 10.0 mi Calm Calm - N/A   Clear
7:15 AM 42.8 °F - 35.6 °F 76% 30.04 in 10.0 mi Calm Calm - N/A   Clear
7:35 AM 42.8 °F - 37.4 °F 81% 30.05 in 10.0 mi Calm Calm - N/A   Clear
7:55 AM 44.6 °F - 39.2 °F 81% 30.05 in 10.0 mi Calm Calm - N/A   Clear
8:15 AM 46.4 °F 42.9 °F 37.4 °F 71% 30.06 in 10.0 mi West 6.9 mph - N/A   Clear
8:35 AM 48.2 °F - 39.2 °F 71% 30.07 in 10.0 mi WNW 5.8 mph - N/A   Clear
8:55 AM 50.0 °F - 37.4 °F 62% 30.07 in 10.0 mi WNW 6.9 mph - N/A   Clear
9:15 AM 50.0 °F - 39.2 °F 66% 30.08 in 10.0 mi WNW 5.8 mph - N/A   Clear
9:35 AM 51.8 °F - 41.0 °F 67% 30.09 in 10.0 mi WNW 6.9 mph - N/A   Clear
9:55 AM 51.8 °F - 41.0 °F 67% 30.09 in 10.0 mi West 8.1 mph - N/A   Clear
10:15 AM 53.6 °F - 41.0 °F 62% 30.10 in 10.0 mi WNW 5.8 mph - N/A   Clear
10:35 AM 53.6 °F - 41.0 °F 62% 30.10 in 10.0 mi West 4.6 mph - N/A   Clear
10:55 AM 55.4 °F - 42.8 °F 63% 30.10 in 10.0 mi WSW 6.9 mph - N/A   Clear
11:15 AM 57.2 °F - 42.8 °F 59% 30.10 in 10.0 mi West 8.1 mph - N/A   Clear
11:35 AM 59.0 °F - 42.8 °F 55% 30.10 in 10.0 mi West 12.7 mph - N/A   Clear
11:55 AM 59.0 °F - 39.2 °F 48% 30.09 in 10.0 mi West 12.7 mph 17.3 mph N/A   Clear
12:15 PM 59.0 °F - 39.2 °F 48% 30.09 in 10.0 mi West 9.2 mph - N/A   Clear
12:35 PM 60.8 °F - 39.2 °F 45% 30.09 in 10.0 mi WNW 12.7 mph 16.1 mph N/A   Clear
12:55 PM 60.8 °F - 39.2 °F 45% 30.09 in 10.0 mi West 10.4 mph 16.1 mph N/A   Clear
1:15 PM 60.8 °F - 37.4 °F 42% 30.09 in 10.0 mi West 9.2 mph 16.1 mph N/A   Scattered Clouds
1:35 PM 60.8 °F - 37.4 °F 42% 30.08 in 10.0 mi West 5.8 mph 10.4 mph N/A   Clear
1:55 PM 60.8 °F - 39.2 °F 45% 30.08 in 10.0 mi West 6.9 mph 18.4 mph N/A   Scattered Clouds
2:15 PM 62.6 °F - 39.2 °F 42% 30.07 in 10.0 mi West 12.7 mph 17.3 mph N/A   Scattered Clouds
2:55 PM 62.6 °F - 35.6 °F 37% 30.06 in 10.0 mi WSW 10.4 mph 16.1 mph N/A   Clear
3:15 PM 62.6 °F - 35.6 °F 37% 30.06 in 10.0 mi West 13.8 mph 17.3 mph N/A   Clear
3:35 PM 62.6 °F - 35.6 °F 37% 30.05 in 10.0 mi WSW 15.0 mph - N/A   Clear
3:55 PM 62.6 °F - 35.6 °F 37% 30.06 in 10.0 mi West 8.1 mph - N/A   Clear
4:15 PM 62.6 °F - 35.6 °F 37% 30.05 in 10.0 mi West 15.0 mph 18.4 mph N/A   Clear
4:35 PM 62.6 °F - 33.8 °F 34% 30.05 in 10.0 mi West 11.5 mph - N/A   Clear
4:55 PM 62.6 °F - 35.6 °F 37% 30.05 in 10.0 mi West 10.4 mph 16.1 mph N/A   Clear
5:15 PM 62.6 °F - 35.6 °F 37% 30.04 in 10.0 mi West 11.5 mph - N/A   Clear
5:35 PM 62.6 °F - 33.8 °F 34% 30.04 in 10.0 mi WSW 8.1 mph - N/A   Clear
5:55 PM 62.6 °F - 35.6 °F 37% 30.04 in 10.0 mi SW 11.5 mph - N/A   Clear
6:15 PM 62.6 °F - 35.6 °F 37% 30.04 in 10.0 mi SW 10.4 mph - N/A   Clear
6:35 PM 62.6 °F - 35.6 °F 37% 30.04 in 10.0 mi SW 9.2 mph - N/A   Clear
6:55 PM 60.8 °F - 37.4 °F 42% 30.04 in 10.0 mi SW 10.4 mph - N/A   Clear
7:15 PM 59.0 °F - 39.2 °F 48% 30.04 in 10.0 mi SSW 8.1 mph - N/A   Clear
7:55 PM 53.6 °F - 39.2 °F 58% 30.04 in 10.0 mi SSW 6.9 mph - N/A   Clear
8:15 PM 53.6 °F - 39.2 °F 58% 30.04 in 10.0 mi SSW 6.9 mph - N/A   Clear
8:35 PM 53.6 °F - 37.4 °F 54% 30.03 in 10.0 mi SSW 6.9 mph - N/A   Clear
8:55 PM 51.8 °F - 37.4 °F 58% 30.03 in 10.0 mi South 6.9 mph - N/A   Clear
9:15 PM 51.8 °F - 35.6 °F 54% 30.03 in 10.0 mi South 8.1 mph - N/A   Clear
9:35 PM 50.0 °F - 37.4 °F 62% 30.03 in 10.0 mi South 6.9 mph - N/A   Clear
9:55 PM 51.8 °F - 37.4 °F 58% 30.03 in 10.0 mi South 6.9 mph - N/A   Clear
10:15 PM 51.8 °F - 37.4 °F 58% 30.03 in 10.0 mi South 6.9 mph - N/A   Clear
10:35 PM 50.0 °F - 37.4 °F 62% 30.03 in 10.0 mi Calm Calm - N/A   Clear
10:55 PM 51.8 °F - 37.4 °F 58% 30.04 in 10.0 mi Calm Calm - N/A   Clear
11:15 PM 51.8 °F - 37.4 °F 58% 30.04 in 10.0 mi South 5.8 mph - N/A   Clear
11:35 PM 50.0 °F - 35.6 °F 58% 30.04 in 10.0 mi SSW 6.9 mph - N/A   Clear
11:55 PM 51.8 °F - 37.4 °F 58% 30.04 in 10.0 mi SSW 6.9 mph - N/A   Clear